createdAt,value
2023-01-20T00:00:44.808Z,19.40
2023-01-20T00:05:53.069Z,33.00
2023-01-20T00:10:54.648Z,29.90
2023-01-20T00:15:56.410Z,24.50
2023-01-20T00:21:03.457Z,21.00
2023-01-20T00:26:11.448Z,19.00
2023-01-20T00:31:16.496Z,17.80
2023-01-20T00:36:20.050Z,32.50
2023-01-20T00:41:21.587Z,24.40
2023-01-20T00:46:23.365Z,26.40
2023-01-20T00:51:24.924Z,23.00
2023-01-20T00:56:26.639Z,17.90
2023-01-20T01:01:28.166Z,17.40
2023-01-20T01:06:29.743Z,34.90
2023-01-20T01:11:31.348Z,22.60
2023-01-20T01:16:33.032Z,20.40
2023-01-20T01:21:34.749Z,20.40
2023-01-20T01:26:36.215Z,20.00
2023-01-20T01:31:39.059Z,14.70
2023-01-20T01:36:40.867Z,29.30
2023-01-20T01:41:42.357Z,18.80
2023-01-20T01:46:43.952Z,19.00
2023-01-20T01:51:51.429Z,20.20
2023-01-20T01:56:53.799Z,12.50
2023-01-20T02:01:56.204Z,13.00
2023-01-20T02:07:06.436Z,27.50
2023-01-20T02:12:15.472Z,16.60
2023-01-20T02:17:22.681Z,4.80
2023-01-20T02:23:06.908Z,19.60
2023-01-20T02:28:23.471Z,24.70
2023-01-20T02:33:56.361Z,18.60
2023-01-20T02:39:01.794Z,16.50
2023-01-20T02:44:21.090Z,17.10
2023-01-20T02:49:32.861Z,39.70
2023-01-20T02:54:39.032Z,23.40
2023-01-20T02:59:45.764Z,18.80
2023-01-20T03:05:01.625Z,10.30
2023-01-20T03:10:09.417Z,10.20
2023-01-20T03:15:12.123Z,13.00
2023-01-20T03:20:14.167Z,37.90
2023-01-20T03:25:18.943Z,21.60
2023-01-20T03:30:21.405Z,19.70
2023-01-20T03:35:23.869Z,12.60
2023-01-20T03:40:32.443Z,17.30
2023-01-20T03:45:46.696Z,33.90
2023-01-20T03:50:55.030Z,32.10
2023-01-20T03:56:10.320Z,19.80
2023-01-20T04:01:17.781Z,22.70
2023-01-20T04:06:23.659Z,20.10
2023-01-20T04:11:27.232Z,19.30
2023-01-20T04:16:28.780Z,28.10
2023-01-20T04:21:45.386Z,18.00
2023-01-20T04:26:47.156Z,19.60
2023-01-20T04:31:48.669Z,19.40
2023-01-20T04:36:50.136Z,17.90
2023-01-20T04:41:51.722Z,29.60
2023-01-20T04:46:58.410Z,26.20
2023-01-20T04:51:59.929Z,28.20
2023-01-20T04:57:01.395Z,23.90
2023-01-20T05:02:02.994Z,18.70
2023-01-20T05:07:04.626Z,33.70
2023-01-20T05:12:06.155Z,28.50
2023-01-20T05:17:07.941Z,22.30
2023-01-20T05:22:09.889Z,20.80
2023-01-20T05:27:11.427Z,20.20
2023-01-20T05:32:12.897Z,34.40
2023-01-20T05:37:17.699Z,27.00
2023-01-20T05:42:19.291Z,25.50
2023-01-20T05:47:20.832Z,25.20
2023-01-20T05:52:26.413Z,29.10
2023-01-20T05:57:27.996Z,25.00
2023-01-20T06:02:31.223Z,37.70
2023-01-20T06:07:32.809Z,27.90
2023-01-20T06:12:34.305Z,25.50
2023-01-20T06:17:36.071Z,23.80
2023-01-20T06:22:37.844Z,22.70
2023-01-20T06:27:39.454Z,19.80
2023-01-20T06:32:41.160Z,36.00
2023-01-20T06:37:42.649Z,26.00
2023-01-20T06:42:44.252Z,28.40
2023-01-20T06:47:49.507Z,27.60
2023-01-20T06:52:50.970Z,24.10
2023-01-20T06:57:53.952Z,25.90
2023-01-20T07:02:55.428Z,41.30
2023-01-20T07:07:56.885Z,34.20
2023-01-20T07:12:58.363Z,43.10
2023-01-20T07:17:59.832Z,37.10
2023-01-20T07:23:02.298Z,30.90
2023-01-20T07:28:04.918Z,46.70
2023-01-20T07:33:06.440Z,38.50
2023-01-20T07:38:07.956Z,35.80
2023-01-20T07:43:09.481Z,30.00
2023-01-20T07:48:11.130Z,24.40
2023-01-20T07:53:12.760Z,24.90
2023-01-20T07:58:14.279Z,35.20
2023-01-20T08:03:16.304Z,32.00
2023-01-20T08:08:17.942Z,35.20
2023-01-20T08:13:19.417Z,30.20
2023-01-20T08:18:20.983Z,38.70
2023-01-20T08:23:22.657Z,34.20
2023-01-20T08:28:24.192Z,44.30
2023-01-20T08:33:25.900Z,34.20
2023-01-20T08:38:27.408Z,31.40
2023-01-20T08:43:29.099Z,39.50
2023-01-20T08:48:30.736Z,38.50
2023-01-20T08:53:32.500Z,30.20
2023-01-20T08:58:34.087Z,58.00
2023-01-20T09:03:35.607Z,49.80
2023-01-20T09:08:37.946Z,50.40
2023-01-20T09:13:40.116Z,35.10
2023-01-20T09:18:42.008Z,27.40
2023-01-20T09:23:43.525Z,28.30
2023-01-20T09:28:46.072Z,26.20
2023-01-20T09:33:47.856Z,23.60
2023-01-20T09:39:07.989Z,17.50
2023-01-20T09:44:46.993Z,17.00
2023-01-20T09:50:44.046Z,25.90
2023-01-20T09:55:56.160Z,19.60
2023-01-20T10:01:24.497Z,18.60
2023-01-20T10:06:34.982Z,27.30
2023-01-20T10:11:40.868Z,21.40
2023-01-20T10:16:51.001Z,13.40
2023-01-20T10:22:18.845Z,15.60
2023-01-20T10:27:20.513Z,22.60
2023-01-20T10:32:41.158Z,25.00
2023-01-20T10:37:42.892Z,31.70
2023-01-20T10:42:58.529Z,16.50
2023-01-20T10:48:07.120Z,21.40
2023-01-20T10:53:27.228Z,13.80
2023-01-20T10:58:32.565Z,15.90
2023-01-20T11:03:42.071Z,9.20
2023-01-20T11:08:44.540Z,31.60
2023-01-20T11:13:46.944Z,28.80
2023-01-20T11:19:03.360Z,22.90
2023-01-20T11:24:33.767Z,22.60
2023-01-20T11:29:42.308Z,28.20
2023-01-20T11:34:49.716Z,29.40
2023-01-20T11:39:51.602Z,24.40
2023-01-20T11:45:19.558Z,33.40
2023-01-20T11:50:31.776Z,25.80
2023-01-20T11:55:42.072Z,22.20
2023-01-20T12:00:44.657Z,22.10
2023-01-20T12:06:12.211Z,23.50
2023-01-20T12:11:18.929Z,17.80
2023-01-20T12:16:21.894Z,17.10
2023-01-20T12:21:31.927Z,21.30
2023-01-20T12:26:35.564Z,18.20
2023-01-20T12:31:37.336Z,24.40
2023-01-20T12:37:07.894Z,22.60
2023-01-20T12:42:37.497Z,18.60
2023-01-20T12:48:00.473Z,13.40
2023-01-20T12:53:24.208Z,15.90
2023-01-20T12:58:44.328Z,15.00
2023-01-20T13:04:23.207Z,16.00
2023-01-20T13:09:44.710Z,18.30
2023-01-20T13:14:53.138Z,22.40
2023-01-20T13:19:59.290Z,11.50
2023-01-20T13:25:04.819Z,14.70
2023-01-20T13:30:28.908Z,13.60
2023-01-20T13:35:30.586Z,13.30
2023-01-20T13:40:37.928Z,14.60
2023-01-20T13:45:39.537Z,18.60
2023-01-20T13:50:42.703Z,16.10
2023-01-20T13:55:44.185Z,13.50
2023-01-20T14:00:49.171Z,8.50
2023-01-20T14:05:56.593Z,23.90
2023-01-20T14:11:16.215Z,16.80
2023-01-20T14:16:26.815Z,10.80
2023-01-20T14:21:31.475Z,10.00
2023-01-20T14:26:33.361Z,7.70
2023-01-20T14:31:46.382Z,15.10
2023-01-20T14:36:48.634Z,13.60
2023-01-20T14:41:52.675Z,7.50
2023-01-20T14:46:57.743Z,12.90
2023-01-20T14:52:01.304Z,8.70
2023-01-20T14:57:12.498Z,10.50
2023-01-20T15:02:28.280Z,8.70
2023-01-20T15:07:29.980Z,17.70
2023-01-20T15:12:54.293Z,10.10
2023-01-20T15:18:11.162Z,18.00
2023-01-20T15:23:22.443Z,7.60
2023-01-20T15:28:27.873Z,14.00
2023-01-20T15:33:29.648Z,19.60
2023-01-20T15:38:32.446Z,13.10
2023-01-20T15:43:33.914Z,16.80
2023-01-20T15:48:35.433Z,13.90
2023-01-20T15:53:37.017Z,21.70
2023-01-20T15:58:39.416Z,10.70
2023-01-20T16:03:41.376Z,17.20
2023-01-20T16:08:48.528Z,10.50
2023-01-20T16:13:50.070Z,13.00
2023-01-20T16:18:51.676Z,14.20
2023-01-20T16:23:53.163Z,23.10
2023-01-20T16:28:57.701Z,8.90
2023-01-20T16:33:59.292Z,14.00
2023-01-20T16:39:00.962Z,12.40
2023-01-20T16:44:04.229Z,9.40
2023-01-20T16:49:05.751Z,11.90
2023-01-20T16:54:08.863Z,6.40
2023-01-20T16:59:10.396Z,14.70
2023-01-20T17:04:12.153Z,11.00
2023-01-20T17:09:14.134Z,16.10
2023-01-20T17:14:15.696Z,11.40
2023-01-20T17:19:17.867Z,14.00
2023-01-20T17:24:19.471Z,23.30
2023-01-20T17:29:22.112Z,9.90
2023-01-20T17:34:23.846Z,6.80
2023-01-20T17:39:25.440Z,9.80
2023-01-20T17:44:27.024Z,8.90
2023-01-20T17:49:28.499Z,14.80
2023-01-20T17:54:30.276Z,11.60
2023-01-20T17:59:31.886Z,9.30
2023-01-20T18:04:33.437Z,9.70
2023-01-20T18:09:35.662Z,8.90
2023-01-20T18:14:37.140Z,8.00
2023-01-20T18:19:39.162Z,16.10
2023-01-20T18:24:40.627Z,7.70
2023-01-20T18:29:42.100Z,16.40
2023-01-20T18:34:43.638Z,6.70
2023-01-20T18:39:45.167Z,5.90
2023-01-20T18:44:46.845Z,8.00
2023-01-20T18:49:48.348Z,14.10
2023-01-20T18:54:49.872Z,9.60
2023-01-20T18:59:51.349Z,8.30
2023-01-20T19:04:52.901Z,9.10
2023-01-20T19:09:54.790Z,7.30
2023-01-20T19:14:56.417Z,6.90
2023-01-20T19:19:57.885Z,12.80
2023-01-20T19:24:59.431Z,13.20
2023-01-20T19:30:01.136Z,5.40
2023-01-20T19:35:02.640Z,10.80
2023-01-20T19:40:05.217Z,8.00
2023-01-20T19:45:07.865Z,5.50
2023-01-20T19:50:10.652Z,6.10
2023-01-20T19:55:12.593Z,7.70
2023-01-20T20:00:14.910Z,9.50
2023-01-20T20:05:16.923Z,12.10
2023-01-20T20:10:18.867Z,12.60
2023-01-20T20:15:20.709Z,11.60
2023-01-20T20:20:22.304Z,5.60
2023-01-20T20:25:23.809Z,10.80
2023-01-20T20:30:25.381Z,9.00
2023-01-20T20:35:26.890Z,11.70
2023-01-20T20:40:28.451Z,11.70
2023-01-20T20:45:30.697Z,8.50
2023-01-20T20:50:32.294Z,8.00
2023-01-20T20:55:34.190Z,8.40
2023-01-20T21:00:37.255Z,6.00
2023-01-20T21:05:38.909Z,13.20
2023-01-20T21:10:41.559Z,8.20
2023-01-20T21:15:43.850Z,13.00
2023-01-20T21:20:45.435Z,11.50
2023-01-20T21:25:46.918Z,8.60
2023-01-20T21:30:48.432Z,9.00
2023-01-20T21:35:49.999Z,5.40
2023-01-20T21:41:01.233Z,13.20
2023-01-20T21:46:02.958Z,10.50
2023-01-20T21:51:23.517Z,7.40
2023-01-20T21:56:25.012Z,9.20
2023-01-20T22:01:26.564Z,10.40
2023-01-20T22:06:28.043Z,7.40
2023-01-20T22:11:29.613Z,10.30
2023-01-20T22:16:32.319Z,16.90
2023-01-20T22:21:34.144Z,12.70
2023-01-20T22:26:35.643Z,7.10
2023-01-20T22:31:37.261Z,16.90
2023-01-20T22:36:39.344Z,9.50
2023-01-20T22:41:41.520Z,8.10
2023-01-20T22:46:43.069Z,14.30
2023-01-20T22:51:44.579Z,8.60
2023-01-20T22:56:46.129Z,14.70
2023-01-20T23:01:48.396Z,17.00
2023-01-20T23:06:49.923Z,10.50
2023-01-20T23:11:51.439Z,6.60
2023-01-20T23:16:52.998Z,10.40
2023-01-20T23:21:54.755Z,9.40
2023-01-20T23:26:56.246Z,6.60
2023-01-20T23:31:57.853Z,10.50
2023-01-20T23:36:59.554Z,10.10
2023-01-20T23:42:01.089Z,5.80
2023-01-20T23:47:02.633Z,8.60
2023-01-20T23:52:05.231Z,8.00
2023-01-20T23:57:06.776Z,8.90
